Time;durP1;ratioP1;P1;durP2;ratioP2;P2;SDS_P1;SDS_P2;PMS_P1;PMS_P2;Temp;Humidity;BMP_temperature;BMP_pressure;BME280_temperature;BME280_humidity;BME280_pressure;Samples;Min_cycle;Max_cycle;Signal;HPM_P1;HPM_P2
2022/09/20 00:00:39;;;;;;;2.83;1.48;;;11.10;99.90;;;;;;5167622;28;20049;-72
2022/09/20 00:03:14;;;;;;;;;;;11.10;99.90;;;;;;5193095;28;20049;-72
2022/09/20 00:05:46;;;;;;;2.05;1.42;;;11.10;99.90;;;;;;5198264;28;19920;-72
2022/09/20 00:08:20;;;;;;;2.53;1.50;;;11.10;99.90;;;;;;5219399;28;20345;-72
2022/09/20 00:11:00;;;;;;;;;;;11.10;99.90;;;;;;5230373;28;20086;-72
2022/09/20 00:13:38;;;;;;;1.88;1.42;;;11.00;99.90;;;;;;5236069;28;19915;-72
2022/09/20 00:16:13;;;;;;;1.73;1.58;;;11.00;99.90;;;;;;5220716;28;20039;-72
2022/09/20 00:18:55;;;;;;;1.20;1.10;;;10.90;99.90;;;;;;5200502;28;20610;-72
2022/09/20 00:21:32;;;;;;;1.60;1.50;;;11.00;99.90;;;;;;5189819;28;20045;-72
2022/09/20 00:24:05;;;;;;;1.67;1.48;;;10.90;99.90;;;;;;5205213;28;20040;-72
2022/09/20 00:26:39;;;;;;;1.77;1.52;;;10.90;99.90;;;;;;5240359;28;20045;-72
2022/09/20 00:29:12;;;;;;;;;;;10.90;99.90;;;;;;5222648;28;20571;-72
2022/09/20 00:31:48;;;;;;;1.85;1.42;;;10.90;99.90;;;;;;5211281;28;19912;-72
2022/09/20 00:37:15;;;;;;;2.20;1.42;;;10.90;99.90;;;;;;5212703;28;20033;-72
2022/09/20 00:39:46;;;;;;;;;;;10.80;99.90;;;;;;5203348;28;20035;-72
2022/09/20 00:42:18;;;;;;;1.73;1.23;;;10.90;99.90;;;;;;5222484;28;19916;-72
2022/09/20 00:44:58;;;;;;;2.08;1.45;;;10.90;99.90;;;;;;5226906;28;20032;-72
2022/09/20 00:48:02;;;;;;;1.65;1.20;;;10.90;99.90;;;;;;5208899;28;20044;-72
2022/09/20 00:50:49;;;;;;;2.30;1.27;;;11.00;99.90;;;;;;5222446;28;20044;-72
2022/09/20 00:53:35;;;;;;;3.10;1.45;;;10.90;99.90;;;;;;5207048;28;20063;-72
2022/09/20 00:56:21;;;;;;;2.80;1.20;;;10.80;99.90;;;;;;5206050;28;20024;-72
2022/09/20 00:59:18;;;;;;;1.70;1.20;;;10.90;99.90;;;;;;5222676;28;20498;-72
2022/09/20 01:01:58;;;;;;;2.20;1.40;;;10.80;99.90;;;;;;5238885;28;20593;-72
2022/09/20 01:04:34;;;;;;;1.45;1.35;;;10.80;99.90;;;;;;5200588;28;20405;-72
2022/09/20 01:07:08;;;;;;;3.05;1.45;;;10.90;99.90;;;;;;5190636;28;20037;-72
2022/09/20 01:09:43;;;;;;;1.20;1.10;;;10.90;99.90;;;;;;5189081;28;20032;-72
2022/09/20 01:12:17;;;;;;;;;;;10.90;99.90;;;;;;5242208;28;20038;-72
2022/09/20 01:14:53;;;;;;;2.10;1.33;;;10.90;99.90;;;;;;5218997;28;19923;-72
2022/09/20 01:17:30;;;;;;;1.27;1.17;;;11.00;99.90;;;;;;5243515;28;20040;-72
2022/09/20 01:20:08;;;;;;;2.67;1.67;;;10.90;99.90;;;;;;5221447;28;20444;-72
2022/09/20 01:23:13;;;;;;;2.78;1.63;;;11.00;99.90;;;;;;5224628;28;20249;-72
2022/09/20 01:26:07;;;;;;;1.45;1.35;;;11.00;99.90;;;;;;5243380;28;20593;-72
2022/09/20 01:28:45;;;;;;;2.05;1.33;;;10.90;99.90;;;;;;5243900;28;20481;-72
2022/09/20 01:31:30;;;;;;;3.55;1.10;;;10.90;99.90;;;;;;5227539;28;20032;-72
2022/09/20 01:34:41;;;;;;;3.97;1.50;;;11.00;99.90;;;;;;5228927;28;20071;-72
2022/09/20 01:37:59;;;;;;;1.65;1.40;;;10.80;99.90;;;;;;5239736;28;20047;-72
2022/09/20 01:41:02;;;;;;;2.08;1.30;;;10.80;99.90;;;;;;5199237;28;20045;-72
2022/09/20 01:43:54;;;;;;;1.38;1.00;;;10.80;99.90;;;;;;5222563;28;20050;-72
2022/09/20 01:46:34;;;;;;;1.75;1.10;;;10.80;99.90;;;;;;5223346;28;20027;-72
2022/09/20 01:50:01;;;;;;;2.17;1.40;;;10.80;99.90;;;;;;5225212;28;20036;-72
2022/09/20 01:52:45;;;;;;;1.73;1.52;;;10.70;99.90;;;;;;5231812;28;20032;-72
2022/09/20 01:55:56;;;;;;;1.58;1.48;;;10.70;99.90;;;;;;5223649;28;20032;-72
2022/09/20 01:58:45;;;;;;;2.85;1.33;;;10.70;99.90;;;;;;5222552;28;20055;-72
2022/09/20 02:01:53;;;;;;;1.58;1.25;;;10.70;99.90;;;;;;5232304;28;20024;-72
2022/09/20 02:04:55;;;;;;;1.27;1.17;;;10.70;99.90;;;;;;5246515;28;20120;-72
2022/09/20 02:08:09;;;;;;;1.45;1.35;;;10.70;99.90;;;;;;5229916;28;20028;-72
2022/09/20 02:11:06;;;;;;;1.55;1.40;;;10.80;99.90;;;;;;5225076;28;20033;-72
2022/09/20 02:13:52;;;;;;;1.30;1.20;;;10.80;99.90;;;;;;5220367;28;20547;-72
2022/09/20 02:16:45;;;;;;;1.77;1.15;;;10.70;99.90;;;;;;5231113;28;20522;-72
2022/09/20 02:19:37;;;;;;;1.83;1.20;;;10.70;99.90;;;;;;5223797;28;20029;-72
2022/09/20 02:22:45;;;;;;;1.52;1.05;;;10.60;99.90;;;;;;5225495;28;20036;-72
2022/09/20 02:25:52;;;;;;;1.02;1.00;;;10.40;99.90;;;;;;5230956;28;20488;-72
2022/09/20 02:28:55;;;;;;;2.92;1.63;;;10.30;99.90;;;;;;5219334;28;20140;-72
2022/09/20 02:32:11;;;;;;;1.25;1.15;;;10.30;99.90;;;;;;5246060;28;20381;-73
2022/09/20 02:35:29;;;;;;;0.73;0.73;;;10.30;99.90;;;;;;5205731;28;20050;-73
2022/09/20 02:38:28;;;;;;;1.35;1.20;;;10.40;99.90;;;;;;5219899;28;20039;-73
2022/09/20 02:41:21;;;;;;;2.08;1.50;;;10.50;99.90;;;;;;5218660;28;20025;-72
2022/09/20 02:44:13;;;;;;;2.80;0.93;;;10.50;99.90;;;;;;5214228;28;20036;-73
2022/09/20 02:47:31;;;;;;;1.75;1.33;;;10.50;99.90;;;;;;5203996;28;20051;-72
2022/09/20 02:50:49;;;;;;;2.50;1.35;;;10.50;99.90;;;;;;5200555;28;20047;-73
2022/09/20 02:53:53;;;;;;;3.42;1.80;;;10.50;99.90;;;;;;5208325;28;20037;-72
2022/09/20 02:57:10;;;;;;;2.22;2.03;;;10.50;99.90;;;;;;5211698;28;20032;-73
2022/09/20 02:59:58;;;;;;;2.25;1.80;;;10.50;99.90;;;;;;5232736;28;20040;-73
2022/09/20 03:03:17;;;;;;;2.47;2.05;;;10.40;99.90;;;;;;5219335;28;20040;-73
2022/09/20 03:06:30;;;;;;;2.00;1.88;;;10.40;99.90;;;;;;5208060;28;20048;-73
2022/09/20 03:09:24;;;;;;;2.10;1.90;;;10.50;99.90;;;;;;5225750;28;20045;-73
2022/09/20 03:12:48;;;;;;;2.08;1.75;;;10.50;99.90;;;;;;5220419;28;20036;-73
2022/09/20 03:15:44;;;;;;;2.40;1.52;;;10.50;99.90;;;;;;5188271;28;20046;-73
2022/09/20 03:18:30;;;;;;;3.00;2.10;;;10.50;99.90;;;;;;5216128;28;20382;-73
2022/09/20 03:21:25;;;;;;;2.25;2.05;;;10.50;99.90;;;;;;5237634;28;20471;-72
2022/09/20 03:24:51;;;;;;;2.80;2.13;;;10.60;99.90;;;;;;5214130;28;20489;-72
2022/09/20 03:28:18;;;;;;;3.90;2.30;;;10.60;99.90;;;;;;5145539;28;20034;-72
2022/09/20 03:31:16;;;;;;;2.75;2.03;;;10.60;99.90;;;;;;5163219;28;20042;-72
2022/09/20 03:34:19;;;;;;;3.65;2.40;;;10.50;99.90;;;;;;5153157;28;20040;-72
2022/09/20 03:37:27;;;;;;;4.05;2.00;;;10.50;99.90;;;;;;5153834;28;20046;-72
2022/09/20 03:40:30;;;;;;;2.45;2.10;;;10.40;99.90;;;;;;5116563;28;20029;-72
2022/09/20 03:43:33;;;;;;;5.28;1.98;;;10.40;99.90;;;;;;5140710;28;20308;-72
2022/09/20 03:46:45;;;;;;;2.45;2.25;;;10.40;99.90;;;;;;5136521;28;20057;-72
2022/09/20 03:49:50;;;;;;;2.28;2.08;;;10.40;99.90;;;;;;5127020;28;20527;-72
2022/09/20 03:52:48;;;;;;;5.05;2.10;;;10.40;99.90;;;;;;5153033;28;20030;-72
2022/09/20 03:55:56;;;;;;;4.78;2.30;;;10.40;99.90;;;;;;5152170;28;20049;-72
2022/09/20 03:58:49;;;;;;;2.63;2.30;;;10.30;99.90;;;;;;5159067;28;20038;-72
2022/09/20 04:01:57;;;;;;;2.25;1.92;;;10.30;99.90;;;;;;5153265;28;20022;-72
2022/09/20 04:04:55;;;;;;;2.30;2.10;;;10.20;99.90;;;;;;5221260;28;20065;-72
2022/09/20 04:08:11;;;;;;;3.13;2.17;;;10.30;99.90;;;;;;5197366;28;20342;-72
2022/09/20 04:11:02;;;;;;;3.28;2.22;;;10.30;99.90;;;;;;5216341;28;20047;-72
2022/09/20 04:14:08;;;;;;;3.15;2.75;;;10.30;99.90;;;;;;5208728;28;20049;-72
2022/09/20 04:17:10;;;;;;;2.45;2.10;;;10.30;99.90;;;;;;5199265;28;20037;-72
2022/09/20 04:20:24;;;;;;;3.03;1.90;;;10.10;99.90;;;;;;5181281;28;20340;-72
2022/09/20 04:23:01;;;;;;;3.05;2.13;;;10.00;99.90;;;;;;5146438;28;20075;-72
2022/09/20 04:25:48;;;;;;;2.35;1.90;;;10.00;99.90;;;;;;5189260;28;20037;-72
2022/09/20 04:28:52;;;;;;;1.98;1.77;;;10.00;99.90;;;;;;5212128;28;20044;-72
2022/09/20 04:31:36;;;;;;;2.00;1.80;;;9.90;99.90;;;;;;5216325;28;20664;-72
2022/09/20 04:37:37;;;;;;;2.10;1.85;;;10.00;99.90;;;;;;5206158;28;20029;-73
2022/09/20 04:40:55;;;;;;;1.70;1.60;;;10.00;99.90;;;;;;5222722;28;20334;-71
2022/09/20 04:44:04;;;;;;;1.50;1.40;;;9.90;99.90;;;;;;5191527;28;20114;-72
2022/09/20 04:47:21;;;;;;;1.42;1.23;;;9.90;99.90;;;;;;5206122;28;20029;-72
2022/09/20 04:50:22;;;;;;;1.80;1.55;;;9.90;99.90;;;;;;5189052;28;20043;-71
2022/09/20 04:53:38;;;;;;;1.58;1.48;;;10.00;99.90;;;;;;5221984;28;20036;-73
2022/09/20 04:56:55;;;;;;;1.55;1.42;;;10.00;99.90;;;;;;5220678;28;20035;-73
2022/09/20 05:00:09;;;;;;;2.05;1.60;;;10.00;99.90;;;;;;5221990;28;20047;-73
2022/09/20 05:03:09;;;;;;;2.03;1.92;;;10.00;99.90;;;;;;5213493;28;20032;-73
2022/09/20 05:06:46;;;;;;;2.10;1.65;;;9.90;99.90;;;;;;5191292;28;20057;-72
2022/09/20 05:09:49;;;;;;;2.55;1.73;;;9.90;99.90;;;;;;5193107;28;20043;-72
2022/09/20 05:13:11;;;;;;;1.70;1.52;;;9.90;99.90;;;;;;5201046;28;20051;-73
2022/09/20 05:16:41;;;;;;;1.90;1.33;;;9.90;99.90;;;;;;5222599;28;20063;-73
2022/09/20 05:20:00;;;;;;;1.83;1.63;;;9.80;99.90;;;;;;5191856;28;20114;-73
2022/09/20 05:23:14;;;;;;;1.45;1.35;;;9.80;99.90;;;;;;5227267;28;20549;-73
2022/09/20 05:26:28;;;;;;;3.55;2.30;;;9.90;99.90;;;;;;5200319;28;20036;-72
2022/09/20 05:29:35;;;;;;;1.83;1.65;;;9.90;99.90;;;;;;5212133;28;20022;-73
2022/09/20 05:32:40;;;;;;;1.65;1.50;;;9.90;99.90;;;;;;5166175;28;20538;-73
2022/09/20 05:35:26;;;;;;;2.13;1.52;;;10.00;99.90;;;;;;5181653;28;20037;-73
2022/09/20 05:38:34;;;;;;;1.45;1.35;;;10.00;99.90;;;;;;5182227;28;20047;-73
2022/09/20 05:41:44;;;;;;;1.90;1.70;;;10.00;99.90;;;;;;5206683;28;20029;-72
2022/09/20 05:45:03;;;;;;;1.85;1.75;;;10.00;99.90;;;;;;5201956;28;20104;-73
2022/09/20 05:48:10;;;;;;;2.30;1.80;;;10.00;99.90;;;;;;5208479;28;20045;-72
2022/09/20 05:50:58;;;;;;;2.17;1.80;;;10.00;99.90;;;;;;5219175;28;20079;-72
2022/09/20 05:53:54;;;;;;;2.53;1.95;;;9.90;99.90;;;;;;5191952;28;20036;-72
2022/09/20 05:56:51;;;;;;;2.60;1.85;;;10.00;99.90;;;;;;5239369;28;20028;-72
2022/09/20 05:59:53;;;;;;;2.22;1.92;;;10.00;99.90;;;;;;5180812;28;20465;-72
2022/09/20 06:02:40;;;;;;;2.47;1.58;;;10.00;99.90;;;;;;5190613;28;20037;-72
2022/09/20 06:05:37;;;;;;;3.05;1.73;;;10.10;99.90;;;;;;5193933;28;20060;-72
2022/09/20 06:08:30;;;;;;;2.65;2.05;;;10.10;99.90;;;;;;5217405;28;20028;-71
2022/09/20 06:11:43;;;;;;;2.50;1.70;;;10.10;99.90;;;;;;5211134;28;20043;-72
2022/09/20 06:14:33;;;;;;;1.77;1.67;;;10.10;99.90;;;;;;5233187;28;20027;-74
2022/09/20 06:17:33;;;;;;;3.25;2.00;;;10.10;99.90;;;;;;5215942;28;20038;-73
2022/09/20 06:20:27;;;;;;;2.53;1.55;;;10.20;99.90;;;;;;5217329;28;20032;-74
2022/09/20 06:23:05;;;;;;;5.10;1.90;;;10.20;99.90;;;;;;5235973;28;20042;-73
2022/09/20 06:25:42;;;;;;;2.47;1.90;;;10.30;99.90;;;;;;5199905;28;20036;-72
2022/09/20 06:28:27;;;;;;;3.42;1.70;;;10.30;99.90;;;;;;5224615;28;20044;-74
2022/09/20 06:31:06;;;;;;;2.15;1.95;;;10.40;99.90;;;;;;5222170;28;20342;-72
2022/09/20 06:34:55;;;;;;;3.45;1.73;;;10.40;99.90;;;;;;5212214;28;20044;-72
2022/09/20 06:43:41;;;;;;;2.90;1.83;;;10.80;99.90;;;;;;5080625;29;20039;-73
2022/09/20 06:46:14;;;;;;;2.05;1.83;;;10.90;99.90;;;;;;5079284;29;20530;-71
2022/09/20 06:48:46;;;;;;;2.30;2.03;;;10.90;99.90;;;;;;5059269;29;20301;-72
2022/09/20 06:51:17;;;;;;;1.95;1.50;;;10.90;99.90;;;;;;5058961;29;20058;-72
2022/09/20 06:53:50;;;;;;;1.90;1.70;;;11.00;99.90;;;;;;5075396;29;20184;-72
2022/09/20 06:56:25;;;;;;;2.70;1.90;;;11.20;99.90;;;;;;5061026;29;20079;-72
2022/09/20 06:58:59;;;;;;;2.13;1.88;;;11.40;99.90;;;;;;5075724;29;20040;-72
2022/09/20 07:01:34;;;;;;;2.65;1.77;;;11.40;99.90;;;;;;5075470;29;20368;-71
2022/09/20 07:04:05;;;;;;;;;;;11.40;99.90;;;;;;5078414;29;20054;-71
2022/09/20 07:06:38;;;;;;;1.98;1.50;;;11.20;99.90;;;;;;5083993;29;19927;-71
2022/09/20 07:09:11;;;;;;;2.28;1.70;;;11.10;99.90;;;;;;5047821;29;20063;-71
2022/09/20 07:11:45;;;;;;;1.92;1.75;;;11.10;99.90;;;;;;5078337;29;20048;-71
2022/09/20 07:14:27;;;;;;;2.70;1.80;;;11.10;99.90;;;;;;5148335;28;20359;-72
2022/09/20 07:16:58;;;;;;;4.30;1.77;;;11.10;99.90;;;;;;5216419;28;20037;-71
2022/09/20 07:19:30;;;;;;;2.10;1.90;;;11.20;99.90;;;;;;5228924;28;20040;-72
2022/09/20 07:22:01;;;;;;;2.83;1.63;;;11.30;99.90;;;;;;5238670;28;20012;-72
2022/09/20 07:24:36;;;;;;;1.88;1.77;;;11.30;99.90;;;;;;5241836;28;20036;-72
2022/09/20 07:27:10;;;;;;;1.65;1.50;;;11.30;99.90;;;;;;5237368;28;20024;-73
2022/09/20 07:29:41;;;;;;;1.30;1.20;;;11.30;99.90;;;;;;5238839;28;20043;-73
2022/09/20 07:32:18;;;;;;;2.35;1.80;;;11.20;99.90;;;;;;5222467;28;20040;-72
2022/09/20 07:34:51;;;;;;;1.67;1.58;;;11.10;99.90;;;;;;5218898;28;20043;-72
2022/09/20 07:37:22;;;;;;;2.17;1.90;;;11.10;99.90;;;;;;5201304;28;20429;-73
2022/09/20 07:39:58;;;;;;;3.75;2.13;;;11.10;99.90;;;;;;5199903;28;20037;-73
2022/09/20 07:42:35;;;;;;;3.05;1.92;;;11.10;99.90;;;;;;5200707;28;20047;-73
2022/09/20 07:45:12;;;;;;;4.60;2.13;;;11.10;99.90;;;;;;5203044;28;20033;-71
2022/09/20 07:47:45;;;;;;;4.32;2.10;;;11.10;99.90;;;;;;5220210;28;20071;-71
2022/09/20 07:50:18;;;;;;;2.83;1.83;;;11.10;99.90;;;;;;5201592;28;20049;-72
2022/09/20 07:52:49;;;;;;;4.65;1.90;;;11.10;99.90;;;;;;5225900;28;20273;-73
2022/09/20 07:55:26;;;;;;;2.15;1.95;;;11.20;99.90;;;;;;5209728;28;20071;-72
2022/09/20 07:58:02;;;;;;;2.90;1.90;;;11.40;99.90;;;;;;5202566;28;20051;-72
2022/09/20 08:00:39;;;;;;;2.00;1.90;;;11.60;99.90;;;;;;5201004;28;20371;-72
2022/09/20 08:03:11;;;;;;;2.13;1.92;;;11.90;99.90;;;;;;5209444;28;20111;-72
2022/09/20 08:05:44;;;;;;;2.38;1.63;;;12.10;99.90;;;;;;5236909;28;20544;-71
2022/09/20 08:08:17;;;;;;;2.10;1.93;;;12.20;99.90;;;;;;5232582;28;20589;-72
2022/09/20 08:10:54;;;;;;;2.10;1.90;;;12.00;99.90;;;;;;5236186;28;20228;-71
2022/09/20 08:13:26;;;;;;;1.90;1.70;;;12.00;99.90;;;;;;5219259;28;20392;-71
2022/09/20 08:16:07;;;;;;;1.73;1.58;;;12.00;99.90;;;;;;5215316;28;20037;-73
2022/09/20 08:18:47;;;;;;;2.17;1.85;;;11.80;99.90;;;;;;5216557;28;20049;-73
2022/09/20 08:21:22;;;;;;;1.70;1.60;;;11.90;99.90;;;;;;5200727;28;20464;-73
2022/09/20 08:24:02;;;;;;;2.60;1.63;;;12.10;99.90;;;;;;5197634;28;20051;-73
2022/09/20 08:26:34;;;;;;;1.52;1.40;;;12.20;99.90;;;;;;5199956;28;20045;-73
2022/09/20 08:29:10;;;;;;;2.78;1.90;;;12.50;99.90;;;;;;5210834;28;20361;-73
2022/09/20 08:31:42;;;;;;;1.70;1.60;;;12.80;99.90;;;;;;5210924;28;20037;-73
2022/09/20 08:34:17;;;;;;;3.45;2.05;;;12.90;99.90;;;;;;5213730;28;20048;-72
2022/09/20 08:36:55;;;;;;;1.90;1.77;;;13.20;99.90;;;;;;5197764;28;20027;-72
2022/09/20 08:39:28;;;;;;;1.90;1.65;;;13.30;99.90;;;;;;5215417;28;20130;-74
2022/09/20 08:42:11;;;;;;;4.70;1.95;;;13.60;99.90;;;;;;5214213;28;20048;-73
2022/09/20 08:44:55;;;;;;;1.88;1.30;;;13.50;99.90;;;;;;5208776;28;20033;-73
2022/09/20 08:47:38;;;;;;;1.90;1.73;;;13.30;99.90;;;;;;5199875;28;20442;-73
2022/09/20 08:50:14;;;;;;;1.60;1.50;;;13.20;99.90;;;;;;5221085;28;20036;-73
2022/09/20 08:52:55;;;;;;;3.50;1.73;;;13.50;99.90;;;;;;5235519;28;20592;-72
2022/09/20 08:55:31;;;;;;;3.70;1.35;;;13.40;99.90;;;;;;5236491;28;20385;-72
2022/09/20 08:58:08;;;;;;;1.65;1.50;;;13.40;99.90;;;;;;5254113;28;20649;-71
2022/09/20 09:00:50;;;;;;;2.88;1.23;;;13.70;99.90;;;;;;5235907;28;20041;-71
2022/09/20 09:03:22;;;;;;;2.85;1.52;;;14.10;99.90;;;;;;5222224;28;20028;-73
2022/09/20 09:06:00;;;;;;;1.27;1.20;;;13.70;99.90;;;;;;5213598;28;20254;-72
2022/09/20 09:08:37;;;;;;;3.05;1.60;;;14.00;99.90;;;;;;5195673;28;20040;-71
2022/09/20 09:11:20;;;;;;;3.90;1.45;;;14.10;99.90;;;;;;5207373;28;20045;-72
2022/09/20 09:14:46;;;;;;;4.10;1.60;;;14.10;99.90;;;;;;5214040;28;20024;-72
2022/09/20 09:16:55;;;;;;;1.50;1.40;;;14.50;99.90;;;;;;5218795;28;20552;-72
2022/09/20 09:19:31;;;;;;;2.20;1.48;;;14.80;99.90;;;;;;5221479;28;20025;-72
2022/09/20 09:22:05;;;;;;;3.30;1.20;;;15.40;99.90;;;;;;5218291;28;20036;-72
2022/09/20 09:24:38;;;;;;;1.55;1.45;;;15.40;99.90;;;;;;5215962;28;20040;-72
2022/09/20 09:27:18;;;;;;;1.60;1.50;;;15.10;99.90;;;;;;5203314;28;20036;-72
2022/09/20 09:29:53;;;;;;;1.50;1.40;;;14.70;99.90;;;;;;5199555;28;20037;-72
2022/09/20 09:32:31;;;;;;;3.15;1.38;;;14.90;99.90;;;;;;5185546;28;20037;-72
2022/09/20 09:35:29;;;;;;;2.03;1.33;;;14.70;99.90;;;;;;5219219;28;20049;-71
2022/09/20 09:38:17;;;;;;;1.23;1.17;;;15.30;99.90;;;;;;5219757;28;20306;-73
2022/09/20 09:41:04;;;;;;;1.40;1.30;;;15.00;99.90;;;;;;5213524;28;20049;-73
2022/09/20 09:43:39;;;;;;;2.75;1.50;;;14.60;99.90;;;;;;5218941;28;20078;-71
2022/09/20 09:46:25;;;;;;;4.10;1.60;;;14.40;99.90;;;;;;5216273;28;20021;-74
2022/09/20 09:49:17;;;;;;;1.52;1.42;;;13.80;99.90;;;;;;5212990;28;20322;-72
2022/09/20 09:52:05;;;;;;;1.15;1.15;;;12.60;99.90;;;;;;5219774;28;20039;-72
2022/09/20 09:54:47;;;;;;;1.52;1.38;;;12.00;99.90;;;;;;5218027;28;20040;-73
2022/09/20 09:58:04;;;;;;;1.48;1.30;;;11.60;99.90;;;;;;5187646;28;20037;-73
2022/09/20 10:00:44;;;;;;;1.13;1.13;;;11.40;99.90;;;;;;5201518;28;20039;-72
2022/09/20 10:03:37;;;;;;;1.60;1.50;;;11.30;99.90;;;;;;5186489;28;20346;-72
2022/09/20 10:06:29;;;;;;;4.82;1.55;;;11.10;99.90;;;;;;5213101;28;20079;-73
2022/09/20 10:09:24;;;;;;;1.40;1.25;;;11.10;99.90;;;;;;5199700;28;20270;-72
2022/09/20 10:12:23;;;;;;;3.10;1.75;;;11.20;99.90;;;;;;5213594;28;20513;-72
2022/09/20 10:15:22;;;;;;;2.13;1.48;;;11.70;99.90;;;;;;5208913;28;20400;-74
2022/09/20 10:18:41;;;;;;;2.20;2.00;;;12.90;99.90;;;;;;5213161;28;20269;-73
2022/09/20 10:21:47;;;;;;;3.22;1.58;;;14.40;99.90;;;;;;5229070;28;20041;-74
2022/09/20 10:24:59;;;;;;;1.60;1.50;;;15.70;99.90;;;;;;5230387;28;20309;-74
2022/09/20 10:28:05;;;;;;;2.00;1.52;;;16.00;99.90;;;;;;5208798;28;20475;-74
2022/09/20 10:31:29;;;;;;;4.35;1.30;;;17.00;99.90;;;;;;5201978;28;20041;-72
2022/09/20 10:34:28;;;;;;;1.75;1.50;;;17.70;99.90;;;;;;5218313;28;20443;-72
2022/09/20 10:37:03;;;;;;;4.65;1.52;;;17.40;99.90;;;;;;5233651;28;20476;-73
2022/09/20 10:39:42;;;;;;;1.60;1.48;;;18.10;99.90;;;;;;5211198;28;20039;-73
2022/09/20 10:43:19;;;;;;;2.10;1.40;;;17.30;99.90;;;;;;5239692;28;20028;-74
2022/09/20 10:46:21;;;;;;;3.42;1.10;;;13.20;99.90;;;;;;5239336;28;20031;-75
2022/09/20 10:49:22;;;;;;;1.42;1.13;;;11.10;99.90;;;;;;5202427;28;20071;-74
2022/09/20 10:52:41;;;;;;;1.75;1.08;;;10.40;99.90;;;;;;5207049;28;20244;-74
2022/09/20 10:55:38;;;;;;;5.10;1.38;;;10.10;99.90;;;;;;5198133;28;20346;-74
2022/09/20 10:58:18;;;;;;;2.08;1.15;;;10.10;99.90;;;;;;5200151;28;20045;-74
2022/09/20 11:01:27;;;;;;;1.67;1.25;;;10.10;99.90;;;;;;5213192;28;20036;-74
2022/09/20 11:04:31;;;;;;;1.58;1.23;;;10.30;99.90;;;;;;5211685;28;20492;-74
2022/09/20 11:07:19;;;;;;;2.38;1.00;;;10.50;99.90;;;;;;5120073;28;20076;-74
2022/09/20 11:10:00;;;;;;;1.55;1.40;;;10.60;99.90;;;;;;5146678;28;20038;-74
2022/09/20 11:12:45;;;;;;;1.73;1.63;;;10.90;99.90;;;;;;5128346;28;20085;-75
2022/09/20 11:15:47;;;;;;;2.03;1.60;;;11.00;99.90;;;;;;5157806;28;20060;-74
2022/09/20 11:18:37;;;;;;;2.13;1.50;;;11.10;99.90;;;;;;5119359;28;20034;-73
2022/09/20 11:21:29;;;;;;;1.60;1.50;;;11.00;99.90;;;;;;5107876;28;20488;-73
2022/09/20 11:24:57;;;;;;;2.17;1.50;;;11.20;99.90;;;;;;5156311;28;20041;-74
2022/09/20 11:27:52;;;;;;;1.27;1.10;;;11.60;99.90;;;;;;5097672;29;20126;-73
2022/09/20 11:30:24;;;;;;;3.30;0.90;;;12.20;99.90;;;;;;5077523;29;20043;-74
2022/09/20 11:33:14;;;;;;;5.35;1.38;;;11.90;99.90;;;;;;5119875;28;20062;-75
2022/09/20 11:35:50;;;;;;;5.88;1.50;;;10.40;99.90;;;;;;5114980;28;20045;-74
2022/09/20 11:38:34;;;;;;;1.88;1.40;;;10.00;99.90;;;;;;5096709;29;20252;-74
2022/09/20 11:41:27;;;;;;;0.90;0.90;;;9.90;99.90;;;;;;5117451;28;20058;-74
2022/09/20 11:44:16;;;;;;;1.20;1.10;;;9.90;99.90;;;;;;5129337;28;20076;-74
2022/09/20 11:46:59;;;;;;;1.88;1.48;;;10.10;99.90;;;;;;5176225;28;20481;-73
2022/09/20 11:50:04;;;;;;;1.75;1.17;;;10.20;99.90;;;;;;5148172;28;20037;-73
2022/09/20 11:53:20;;;;;;;1.50;1.35;;;10.50;99.90;;;;;;5172224;28;20049;-73
2022/09/20 11:56:14;;;;;;;1.73;1.40;;;10.60;99.90;;;;;;5156693;28;20038;-73
2022/09/20 11:58:57;;;;;;;1.92;1.35;;;10.80;99.90;;;;;;5152180;28;20033;-73
2022/09/20 12:01:37;;;;;;;3.25;1.23;;;11.00;99.90;;;;;;5178368;28;20048;-73
2022/09/20 12:04:32;;;;;;;1.25;1.15;;;11.20;99.90;;;;;;5210411;28;20039;-73
2022/09/20 12:07:27;;;;;;;1.10;1.00;;;11.30;99.90;;;;;;5237103;28;20036;-73
2022/09/20 12:10:19;;;;;;;1.23;1.13;;;11.90;99.90;;;;;;5235557;28;20045;-73
2022/09/20 12:13:06;;;;;;;2.40;1.13;;;12.80;99.90;;;;;;5213732;28;20033;-72
2022/09/20 12:15:44;;;;;;;2.25;1.00;;;14.50;99.90;;;;;;5201508;28;20046;-72
2022/09/20 12:18:34;;;;;;;1.10;1.10;;;16.00;99.90;;;;;;5218383;28;20025;-72
2022/09/20 12:21:19;;;;;;;1.00;1.00;;;17.10;99.90;;;;;;5231206;28;20029;-73
2022/09/20 12:23:57;;;;;;;1.08;0.98;;;15.70;99.90;;;;;;5197166;28;20562;-73
2022/09/20 12:26:40;;;;;;;1.73;1.00;;;14.70;99.90;;;;;;5232147;28;20033;-74
2022/09/20 12:30:08;;;;;;;2.35;1.15;;;13.80;99.90;;;;;;5220381;28;20032;-74
2022/09/20 12:32:48;;;;;;;1.23;1.13;;;12.60;99.90;;;;;;5234566;28;20046;-74
2022/09/20 12:35:39;;;;;;;4.10;1.30;;;11.70;99.90;;;;;;5213887;28;20330;-74
2022/09/20 12:38:19;;;;;;;1.20;1.10;;;11.10;99.90;;;;;;5216359;28;20050;-74
2022/09/20 12:41:11;;;;;;;1.55;1.23;;;11.00;99.90;;;;;;5232150;28;20024;-73
2022/09/20 12:44:17;;;;;;;1.13;1.08;;;10.80;99.90;;;;;;5218452;28;20040;-73
2022/09/20 12:46:54;;;;;;;;;;;10.60;99.90;;;;;;5208275;28;20033;-74
2022/09/20 12:53:57;;;;;;;1.30;1.20;;;10.20;99.90;;;;;;5236734;28;20040;-74
2022/09/20 12:56:35;;;;;;;0.98;0.90;;;10.10;99.90;;;;;;5080583;29;20039;-74
2022/09/20 12:59:27;;;;;;;2.28;1.27;;;10.00;99.90;;;;;;5109817;28;20050;-73
2022/09/20 13:02:52;;;;;;;1.25;1.13;;;10.00;99.90;;;;;;5099687;29;20073;-73
2022/09/20 13:05:51;;;;;;;1.23;1.00;;;10.00;99.90;;;;;;5105851;28;20051;-74
2022/09/20 13:08:27;;;;;;;3.45;1.05;;;9.90;99.90;;;;;;5087272;29;20368;-74
2022/09/20 13:11:18;;;;;;;1.45;1.30;;;9.90;99.90;;;;;;5113891;29;20734;-74
2022/09/20 13:13:56;;;;;;;1.25;1.17;;;9.90;99.90;;;;;;5098644;29;20063;-74
2022/09/20 13:16:35;;;;;;;3.58;2.70;;;10.00;99.90;;;;;;5096226;28;20594;-73
2022/09/20 13:19:19;;;;;;;7.43;4.00;;;10.00;99.90;;;;;;5096009;29;20082;-73
2022/09/20 13:22:01;;;;;;;5.63;2.20;;;10.10;99.90;;;;;;5096130;29;20039;-73
2022/09/20 13:24:40;;;;;;;1.20;1.10;;;10.30;99.90;;;;;;5102138;29;20047;-73
2022/09/20 13:27:30;;;;;;;1.25;1.10;;;10.30;99.90;;;;;;5143210;28;20046;-74
2022/09/20 13:30:34;;;;;;;3.53;1.27;;;10.30;99.90;;;;;;5167394;28;20044;-73
2022/09/20 13:33:23;;;;;;;1.30;1.20;;;10.40;99.90;;;;;;5223757;28;20102;-73
2022/09/20 13:35:57;;;;;;;1.42;1.33;;;10.30;99.90;;;;;;5256432;28;20027;-73
2022/09/20 13:38:36;;;;;;;1.45;1.35;;;10.20;99.90;;;;;;5261882;28;20478;-74
2022/09/20 13:41:11;;;;;;;1.17;1.13;;;10.00;99.90;;;;;;5227238;28;20044;-73
2022/09/20 13:43:49;;;;;;;2.75;0.70;;;10.10;99.90;;;;;;5221517;28;20028;-73
2022/09/20 13:46:29;;;;;;;1.67;1.05;;;10.10;99.90;;;;;;5220835;28;20033;-73
2022/09/20 13:49:22;;;;;;;1.00;0.95;;;10.10;99.90;;;;;;5221675;28;20044;-73
2022/09/20 13:51:54;;;;;;;0.80;0.80;;;10.10;99.90;;;;;;5224211;28;20048;-73
2022/09/20 13:54:32;;;;;;;2.67;0.95;;;10.20;99.90;;;;;;5231610;28;20020;-74
2022/09/20 13:57:23;;;;;;;1.00;1.00;;;10.30;99.90;;;;;;5221920;28;20175;-73
2022/09/20 13:59:56;;;;;;;0.80;0.80;;;10.40;99.90;;;;;;5210111;28;20048;-73
2022/09/20 14:02:35;;;;;;;1.20;1.10;;;10.70;99.90;;;;;;5219824;28;20032;-73
2022/09/20 14:05:17;;;;;;;0.80;0.80;;;11.30;99.90;;;;;;5197159;28;20503;-73
2022/09/20 14:07:50;;;;;;;2.05;1.00;;;12.40;99.90;;;;;;5212344;28;20614;-73
2022/09/20 14:10:44;;;;;;;4.25;1.25;;;12.90;99.90;;;;;;5186418;28;20037;-73
2022/09/20 14:13:20;;;;;;;1.10;1.00;;;13.40;99.90;;;;;;5205270;28;20071;-73
2022/09/20 14:15:51;;;;;;;1.95;1.33;;;12.90;99.90;;;;;;5207207;28;20032;-73
2022/09/20 14:18:23;;;;;;;1.40;1.00;;;12.30;99.90;;;;;;5223208;28;20427;-73
2022/09/20 14:21:01;;;;;;;0.80;0.80;;;12.20;99.90;;;;;;5200749;28;20045;-73
2022/09/20 14:23:48;;;;;;;2.05;1.30;;;12.10;99.90;;;;;;5241036;28;20042;-73
2022/09/20 14:26:38;;;;;;;0.70;0.70;;;12.00;99.90;;;;;;5221754;28;20041;-73
2022/09/20 14:29:40;;;;;;;1.25;0.90;;;12.00;99.90;;;;;;5231166;28;20035;-73
2022/09/20 14:32:18;;;;;;;1.17;1.00;;;12.10;99.90;;;;;;5235377;28;20028;-73
2022/09/20 14:35:08;;;;;;;0.70;0.70;;;12.30;99.90;;;;;;5226284;28;20037;-73
2022/09/20 14:38:22;;;;;;;0.75;0.75;;;12.30;99.90;;;;;;5241465;28;20036;-73
2022/09/20 14:40:55;;;;;;;0.93;0.93;;;12.80;99.90;;;;;;5166065;28;20054;-73
2022/09/20 14:43:36;;;;;;;1.17;1.05;;;14.60;99.90;;;;;;5158923;28;20061;-73
2022/09/20 14:46:18;;;;;;;1.65;1.30;;;15.00;99.90;;;;;;5155937;28;20042;-72
2022/09/20 14:48:50;;;;;;;0.90;0.90;;;15.40;99.90;;;;;;5158359;28;20258;-72
2022/09/20 14:51:24;;;;;;;1.92;1.25;;;15.60;99.90;;;;;;5159567;28;20057;-73
2022/09/20 14:54:04;;;;;;;1.00;1.00;;;15.90;99.90;;;;;;5176658;28;20047;-72
2022/09/20 14:56:46;;;;;;;2.72;1.48;;;15.70;99.90;;;;;;5174290;28;20335;-72
2022/09/20 14:59:25;;;;;;;3.42;1.40;;;15.70;99.90;;;;;;5158000;28;20040;-73
2022/09/20 15:02:14;;;;;;;1.38;1.10;;;15.50;99.90;;;;;;5160880;28;20033;-74
2022/09/20 15:04:55;;;;;;;1.20;1.10;;;14.90;99.90;;;;;;5148245;28;20054;-72